sensor_id;sensor_type;location;lat;lon;timestamp;pressure;altitude;pressure_sealevel;temperature;humidity
51829;BME280;37881;48.024;8.774;2022-10-01T00:00:52;93711.66;;;7.07;nan
51829;BME280;37881;48.024;8.774;2022-10-01T00:03:22;93710.94;;;6.92;nan
51829;BME280;37881;48.024;8.774;2022-10-01T00:08:29;93703.25;;;6.62;nan
51829;BME280;37881;48.024;8.774;2022-10-01T00:10:56;93691.59;;;6.65;nan
51829;BME280;37881;48.024;8.774;2022-10-01T00:13:25;93700.91;;;6.64;nan
51829;BME280;37881;48.024;8.774;2022-10-01T00:15:52;93704.06;;;6.62;nan
51829;BME280;37881;48.024;8.774;2022-10-01T00:18:18;93711.09;;;6.52;nan
51829;BME280;37881;48.024;8.774;2022-10-01T00:20:45;93711.09;;;6.52;nan
51829;BME280;37881;48.024;8.774;2022-10-01T00:23:13;93703.72;;;6.46;nan
51829;BME280;37881;48.024;8.774;2022-10-01T00:25:40;93706.47;;;6.42;nan
51829;BME280;37881;48.024;8.774;2022-10-01T00:28:07;93702.97;;;6.24;nan
51829;BME280;37881;48.024;8.774;2022-10-01T00:30:34;93702.63;;;5.75;nan
51829;BME280;37881;48.024;8.774;2022-10-01T00:33:05;93711.19;;;5.88;nan
51829;BME280;37881;48.024;8.774;2022-10-01T00:35:32;93697.59;;;5.98;nan
51829;BME280;37881;48.024;8.774;2022-10-01T00:37:59;93696.03;;;6.12;nan
51829;BME280;37881;48.024;8.774;2022-10-01T00:40:26;93699.09;;;6.17;nan
51829;BME280;37881;48.024;8.774;2022-10-01T00:42:52;93703.44;;;6.00;nan
51829;BME280;37881;48.024;8.774;2022-10-01T00:45:19;93690.56;;;5.94;nan
51829;BME280;37881;48.024;8.774;2022-10-01T00:47:54;93692.53;;;5.90;nan
51829;BME280;37881;48.024;8.774;2022-10-01T00:50:29;93692.91;;;5.85;nan
51829;BME280;37881;48.024;8.774;2022-10-01T00:53:01;93697.19;;;5.89;nan
51829;BME280;37881;48.024;8.774;2022-10-01T00:55:40;93707.28;;;5.85;nan
51829;BME280;37881;48.024;8.774;2022-10-01T00:58:12;93696.03;;;5.76;nan
51829;BME280;37881;48.024;8.774;2022-10-01T01:00:41;93697.97;;;5.79;nan
51829;BME280;37881;48.024;8.774;2022-10-01T01:03:09;93698.75;;;5.79;nan
51829;BME280;37881;48.024;8.774;2022-10-01T01:05:36;93697.19;;;5.71;nan
51829;BME280;37881;48.024;8.774;2022-10-01T01:08:03;93686.31;;;5.60;nan
51829;BME280;37881;48.024;8.774;2022-10-01T01:11:41;93693.69;;;5.74;nan
51829;BME280;37881;48.024;8.774;2022-10-01T01:13:49;93699.16;;;5.74;nan
51829;BME280;37881;48.024;8.774;2022-10-01T01:16:24;93696.03;;;5.79;nan
51829;BME280;37881;48.024;8.774;2022-10-01T01:19:11;93689.44;;;5.70;nan
51829;BME280;37881;48.024;8.774;2022-10-01T01:21:49;93684.38;;;5.72;nan
51829;BME280;37881;48.024;8.774;2022-10-01T01:24:38;93684.34;;;5.79;nan
51829;BME280;37881;48.024;8.774;2022-10-01T01:27:24;93695.63;;;5.63;nan
51829;BME280;37881;48.024;8.774;2022-10-01T01:30:00;93697.22;;;5.64;nan
51829;BME280;37881;48.024;8.774;2022-10-01T01:32:41;93694.06;;;5.40;nan
51829;BME280;37881;48.024;8.774;2022-10-01T01:35:26;93685.91;;;5.44;nan
51829;BME280;37881;48.024;8.774;2022-10-01T01:38:00;93691.75;;;5.28;nan
51829;BME280;37881;48.024;8.774;2022-10-01T01:40:30;93684.38;;;5.39;nan
51829;BME280;37881;48.024;8.774;2022-10-01T01:43:03;93687.88;;;5.44;nan
51829;BME280;37881;48.024;8.774;2022-10-01T01:45:32;93682.41;;;5.54;nan
51829;BME280;37881;48.024;8.774;2022-10-01T01:48:01;93684.38;;;5.50;nan
51829;BME280;37881;48.024;8.774;2022-10-01T01:50:32;93673.88;;;5.38;nan
51829;BME280;37881;48.024;8.774;2022-10-01T01:53:06;93655.59;;;5.49;nan
51829;BME280;37881;48.024;8.774;2022-10-01T01:55:34;93649.00;;;5.57;nan
51829;BME280;37881;48.024;8.774;2022-10-01T01:58:02;93649.78;;;5.44;nan
51829;BME280;37881;48.024;8.774;2022-10-01T02:00:28;93649.38;;;5.27;nan
51829;BME280;37881;48.024;8.774;2022-10-01T02:02:56;93646.25;;;5.32;nan
51829;BME280;37881;48.024;8.774;2022-10-01T02:05:26;93643.53;;;5.36;nan
51829;BME280;37881;48.024;8.774;2022-10-01T02:08:20;93643.16;;;5.34;nan
51829;BME280;37881;48.024;8.774;2022-10-01T02:11:02;93647.81;;;5.19;nan
51829;BME280;37881;48.024;8.774;2022-10-01T02:13:56;93640.81;;;5.11;nan
51829;BME280;37881;48.024;8.774;2022-10-01T02:22:10;93609.72;;;5.37;nan
51829;BME280;37881;48.024;8.774;2022-10-01T02:24:42;93617.50;;;5.28;nan
51829;BME280;37881;48.024;8.774;2022-10-01T02:27:20;93613.22;;;5.05;nan
51829;BME280;37881;48.024;8.774;2022-10-01T02:29:49;93619.06;;;5.07;nan
51829;BME280;37881;48.024;8.774;2022-10-01T02:32:17;93613.59;;;5.14;nan
51829;BME280;37881;48.024;8.774;2022-10-01T02:34:46;93615.94;;;5.27;nan
51829;BME280;37881;48.024;8.774;2022-10-01T02:37:17;93619.44;;;5.49;nan
51829;BME280;37881;48.024;8.774;2022-10-01T02:39:45;93620.22;;;5.60;nan
51829;BME280;37881;48.024;8.774;2022-10-01T02:42:15;93623.31;;;5.66;nan
51829;BME280;37881;48.024;8.774;2022-10-01T02:44:44;93621.38;;;5.66;nan
51829;BME280;37881;48.024;8.774;2022-10-01T02:47:28;93619.78;;;5.76;nan
51829;BME280;37881;48.024;8.774;2022-10-01T02:50:00;93617.47;;;5.82;nan
51829;BME280;37881;48.024;8.774;2022-10-01T02:52:37;93611.97;;;5.89;nan
51829;BME280;37881;48.024;8.774;2022-10-01T02:55:23;93619.38;;;5.95;nan
51829;BME280;37881;48.024;8.774;2022-10-01T02:57:54;93617.03;;;5.97;nan
51829;BME280;37881;48.024;8.774;2022-10-01T03:00:22;93612.78;;;6.00;nan
51829;BME280;37881;48.024;8.774;2022-10-01T03:02:49;93610.44;;;6.02;nan
51829;BME280;37881;48.024;8.774;2022-10-01T03:05:16;93605.34;;;6.08;nan
51829;BME280;37881;48.024;8.774;2022-10-01T03:07:43;93609.63;;;6.09;nan
51829;BME280;37881;48.024;8.774;2022-10-01T03:10:10;93609.63;;;6.09;nan
51829;BME280;37881;48.024;8.774;2022-10-01T03:12:38;93616.66;;;6.06;nan
51829;BME280;37881;48.024;8.774;2022-10-01T03:15:13;93606.91;;;6.09;nan
51829;BME280;37881;48.024;8.774;2022-10-01T03:17:41;93608.84;;;6.08;nan
51829;BME280;37881;48.024;8.774;2022-10-01T03:20:08;93608.44;;;6.13;nan
51829;BME280;37881;48.024;8.774;2022-10-01T03:22:35;93611.53;;;6.15;nan
51829;BME280;37881;48.024;8.774;2022-10-01T03:25:02;93613.50;;;6.15;nan
51829;BME280;37881;48.024;8.774;2022-10-01T03:27:29;93619.31;;;6.13;nan
51829;BME280;37881;48.024;8.774;2022-10-01T03:29:56;93617.03;;;6.08;nan
51829;BME280;37881;48.024;8.774;2022-10-01T03:32:23;93618.19;;;6.04;nan
51829;BME280;37881;48.024;8.774;2022-10-01T03:34:50;93626.34;;;6.11;nan
51829;BME280;37881;48.024;8.774;2022-10-01T03:37:16;93629.06;;;6.11;nan
51829;BME280;37881;48.024;8.774;2022-10-01T03:39:43;93636.44;;;6.17;nan
51829;BME280;37881;48.024;8.774;2022-10-01T03:42:10;93636.44;;;6.17;nan
51829;BME280;37881;48.024;8.774;2022-10-01T03:44:37;93630.59;;;6.19;nan
51829;BME280;37881;48.024;8.774;2022-10-01T03:47:04;93624.75;;;6.20;nan
51829;BME280;37881;48.024;8.774;2022-10-01T03:49:30;93625.16;;;6.26;nan
51829;BME280;37881;48.024;8.774;2022-10-01T03:51:57;93625.53;;;6.25;nan
51829;BME280;37881;48.024;8.774;2022-10-01T03:54:24;93621.22;;;6.27;nan
51829;BME280;37881;48.024;8.774;2022-10-01T03:56:51;93623.94;;;6.27;nan
51829;BME280;37881;48.024;8.774;2022-10-01T03:59:18;93619.66;;;6.30;nan
51829;BME280;37881;48.024;8.774;2022-10-01T04:01:45;93605.69;;;6.24;nan
51829;BME280;37881;48.024;8.774;2022-10-01T04:04:12;93612.66;;;6.29;nan
51829;BME280;37881;48.024;8.774;2022-10-01T04:06:39;93611.88;;;6.32;nan
51829;BME280;37881;48.024;8.774;2022-10-01T04:09:06;93611.53;;;6.15;nan
51829;BME280;37881;48.024;8.774;2022-10-01T04:11:35;93605.69;;;6.17;nan
51829;BME280;37881;48.024;8.774;2022-10-01T04:14:02;93611.53;;;6.15;nan
51829;BME280;37881;48.024;8.774;2022-10-01T04:16:29;93611.56;;;6.08;nan
51829;BME280;37881;48.024;8.774;2022-10-01T04:18:56;93620.88;;;6.18;nan
51829;BME280;37881;48.024;8.774;2022-10-01T04:21:23;93624.38;;;6.18;nan
51829;BME280;37881;48.024;8.774;2022-10-01T04:23:50;93626.34;;;6.14;nan
51829;BME280;37881;48.024;8.774;2022-10-01T04:26:16;93623.19;;;6.23;nan
51829;BME280;37881;48.024;8.774;2022-10-01T04:28:44;93625.97;;;6.12;nan
51829;BME280;37881;48.024;8.774;2022-10-01T04:31:13;93621.66;;;6.22;nan
51829;BME280;37881;48.024;8.774;2022-10-01T04:33:55;93621.66;;;6.22;nan
51829;BME280;37881;48.024;8.774;2022-10-01T04:36:23;93617.78;;;6.16;nan
51829;BME280;37881;48.024;8.774;2022-10-01T04:38:54;93607.22;;;6.25;nan
51829;BME280;37881;48.024;8.774;2022-10-01T04:41:26;93601.00;;;6.21;nan
51829;BME280;37881;48.024;8.774;2022-10-01T04:43:56;93596.69;;;6.27;nan
51829;BME280;37881;48.024;8.774;2022-10-01T04:46:24;93601.84;;;6.11;nan
51829;BME280;37881;48.024;8.774;2022-10-01T04:48:51;93600.69;;;5.97;nan
51829;BME280;37881;48.024;8.774;2022-10-01T04:51:18;93601.84;;;5.93;nan
51829;BME280;37881;48.024;8.774;2022-10-01T04:53:45;93590.94;;;6.07;nan
51829;BME280;37881;48.024;8.774;2022-10-01T04:56:11;93593.66;;;6.14;nan
51829;BME280;37881;48.024;8.774;2022-10-01T04:58:38;93597.13;;;6.18;nan
51829;BME280;37881;48.024;8.774;2022-10-01T05:01:05;93594.81;;;6.17;nan
51829;BME280;37881;48.024;8.774;2022-10-01T05:03:32;93594.78;;;6.24;nan
51829;BME280;37881;48.024;8.774;2022-10-01T05:05:59;93596.00;;;6.16;nan
51829;BME280;37881;48.024;8.774;2022-10-01T05:08:26;93595.94;;;6.23;nan
51829;BME280;37881;48.024;8.774;2022-10-01T05:10:53;93592.81;;;6.32;nan
51829;BME280;37881;48.024;8.774;2022-10-01T05:13:20;93597.00;;;6.44;nan
51829;BME280;37881;48.024;8.774;2022-10-01T05:15:48;93595.09;;;6.44;nan
51829;BME280;37881;48.024;8.774;2022-10-01T05:18:17;93593.50;;;6.47;nan
51829;BME280;37881;48.024;8.774;2022-10-01T05:20:44;93597.34;;;6.60;nan
51829;BME280;37881;48.024;8.774;2022-10-01T05:23:11;93598.09;;;6.64;nan
51829;BME280;37881;48.024;8.774;2022-10-01T05:25:38;93606.22;;;6.75;nan
51829;BME280;37881;48.024;8.774;2022-10-01T05:28:04;93593.72;;;6.81;nan
51829;BME280;37881;48.024;8.774;2022-10-01T05:30:32;93600.69;;;6.82;nan
51829;BME280;37881;48.024;8.774;2022-10-01T05:33:00;93606.16;;;6.82;nan
51829;BME280;37881;48.024;8.774;2022-10-01T05:35:28;93607.34;;;6.81;nan
51829;BME280;37881;48.024;8.774;2022-10-01T05:37:57;93606.56;;;6.84;nan
51829;BME280;37881;48.024;8.774;2022-10-01T05:40:25;93601.88;;;6.85;nan
51829;BME280;37881;48.024;8.774;2022-10-01T05:42:57;93605.38;;;6.85;nan
51829;BME280;37881;48.024;8.774;2022-10-01T05:45:27;93606.50;;;6.88;nan
51829;BME280;37881;48.024;8.774;2022-10-01T05:47:59;93606.91;;;6.90;nan
51829;BME280;37881;48.024;8.774;2022-10-01T05:50:28;93602.63;;;6.92;nan
51829;BME280;37881;48.024;8.774;2022-10-01T05:52:57;93601.81;;;6.95;nan
51829;BME280;37881;48.024;8.774;2022-10-01T05:55:25;93597.84;;;7.04;nan
51829;BME280;37881;48.024;8.774;2022-10-01T05:57:57;93588.06;;;7.06;nan
51829;BME280;37881;48.024;8.774;2022-10-01T06:00:25;93595.88;;;7.08;nan
51829;BME280;37881;48.024;8.774;2022-10-01T06:02:59;93595.06;;;7.11;nan
51829;BME280;37881;48.024;8.774;2022-10-01T06:05:27;93594.38;;;6.96;nan
51829;BME280;37881;48.024;8.774;2022-10-01T06:07:54;93591.53;;;7.14;nan
51829;BME280;37881;48.024;8.774;2022-10-01T06:10:22;93595.81;;;7.15;nan
51829;BME280;37881;48.024;8.774;2022-10-01T06:12:50;93592.78;;;7.02;nan
51829;BME280;37881;48.024;8.774;2022-10-01T06:15:17;93603.94;;;7.22;nan
51829;BME280;37881;48.024;8.774;2022-10-01T06:17:44;93591.41;;;7.28;nan
51829;BME280;37881;48.024;8.774;2022-10-01T06:20:16;93584.81;;;7.26;nan
51829;BME280;37881;48.024;8.774;2022-10-01T06:22:52;93588.28;;;7.33;nan
51829;BME280;37881;48.024;8.774;2022-10-01T06:25:19;93579.22;;;7.40;nan
51829;BME280;37881;48.024;8.774;2022-10-01T06:27:54;93576.81;;;7.49;nan
51829;BME280;37881;48.024;8.774;2022-10-01T06:30:28;93578.09;;;7.37;nan
51829;BME280;37881;48.024;8.774;2022-10-01T06:33:00;93569.47;;;7.43;nan
51829;BME280;37881;48.024;8.774;2022-10-01T06:35:31;93573.78;;;7.40;nan
51829;BME280;37881;48.024;8.774;2022-10-01T06:37:59;93580.72;;;7.48;nan
51829;BME280;37881;48.024;8.774;2022-10-01T06:40:29;93575.38;;;7.37;nan
51829;BME280;37881;48.024;8.774;2022-10-01T06:42:57;93584.69;;;7.40;nan
51829;BME280;37881;48.024;8.774;2022-10-01T06:45:25;93587.28;;;7.54;nan
51829;BME280;37881;48.024;8.774;2022-10-01T06:47:59;93577.19;;;7.51;nan
51829;BME280;37881;48.024;8.774;2022-10-01T06:50:30;93580.72;;;7.48;nan
51829;BME280;37881;48.024;8.774;2022-10-01T06:52:59;93582.69;;;7.48;nan
51829;BME280;37881;48.024;8.774;2022-10-01T06:55:30;93578.47;;;7.39;nan
51829;BME280;37881;48.024;8.774;2022-10-01T06:58:16;93580.78;;;7.45;nan
51829;BME280;37881;48.024;8.774;2022-10-01T07:00:43;93579.19;;;7.47;nan
51829;BME280;37881;48.024;8.774;2022-10-01T07:03:14;93583.50;;;7.45;nan
51829;BME280;37881;48.024;8.774;2022-10-01T07:05:41;93588.59;;;7.43;nan
51829;BME280;37881;48.024;8.774;2022-10-01T07:08:08;93580.03;;;7.40;nan
51829;BME280;37881;48.024;8.774;2022-10-01T07:10:35;93578.00;;;7.48;nan
51829;BME280;37881;48.024;8.774;2022-10-01T07:13:08;93577.13;;;7.58;nan
51829;BME280;37881;48.024;8.774;2022-10-01T07:15:36;93575.72;;;7.43;nan
51829;BME280;37881;48.024;8.774;2022-10-01T07:18:03;93581.44;;;7.56;nan
51829;BME280;37881;48.024;8.774;2022-10-01T07:20:30;93564.28;;;7.55;nan
51829;BME280;37881;48.024;8.774;2022-10-01T07:23:01;93572.88;;;7.54;nan
51829;BME280;37881;48.024;8.774;2022-10-01T07:25:28;93562.66;;;7.62;nan
51829;BME280;37881;48.024;8.774;2022-10-01T07:27:56;93568.13;;;7.62;nan
51829;BME280;37881;48.024;8.774;2022-10-01T07:30:25;93565.25;;;7.76;nan
51829;BME280;37881;48.024;8.774;2022-10-01T07:32:52;93574.28;;;7.69;nan
51829;BME280;37881;48.024;8.774;2022-10-01T07:35:20;93573.59;;;7.62;nan
51829;BME280;37881;48.024;8.774;2022-10-01T07:37:48;93557.22;;;7.58;nan
51829;BME280;37881;48.024;8.774;2022-10-01T07:40:16;93556.84;;;7.59;nan
51829;BME280;37881;48.024;8.774;2022-10-01T07:42:55;93552.91;;;7.60;nan
51829;BME280;37881;48.024;8.774;2022-10-01T07:45:23;93552.09;;;7.64;nan
51829;BME280;37881;48.024;8.774;2022-10-01T07:47:57;93554.25;;;7.83;nan
51829;BME280;37881;48.024;8.774;2022-10-01T07:50:26;93539.16;;;8.06;nan
51829;BME280;37881;48.024;8.774;2022-10-01T07:52:54;93539.47;;;8.15;nan
51829;BME280;37881;48.024;8.774;2022-10-01T07:55:23;93536.34;;;8.13;nan
51829;BME280;37881;48.024;8.774;2022-10-01T07:57:53;93538.91;;;8.27;nan
51829;BME280;37881;48.024;8.774;2022-10-01T08:00:22;93531.47;;;8.28;nan
51829;BME280;37881;48.024;8.774;2022-10-01T08:02:50;93549.78;;;8.31;nan
51829;BME280;37881;48.024;8.774;2022-10-01T08:05:20;93549.41;;;8.29;nan
51829;BME280;37881;48.024;8.774;2022-10-01T08:07:48;93547.00;;;8.34;nan
51829;BME280;37881;48.024;8.774;2022-10-01T08:10:17;93552.38;;;8.45;nan
51829;BME280;37881;48.024;8.774;2022-10-01T08:12:45;93558.69;;;8.38;nan
51829;BME280;37881;48.024;8.774;2022-10-01T08:15:16;93555.00;;;8.52;nan
51829;BME280;37881;48.024;8.774;2022-10-01T08:17:44;93539.00;;;8.51;nan
51829;BME280;37881;48.024;8.774;2022-10-01T08:20:12;93555.16;;;8.42;nan
51829;BME280;37881;48.024;8.774;2022-10-01T08:22:40;93544.25;;;8.38;nan
51829;BME280;37881;48.024;8.774;2022-10-01T08:25:08;93550.06;;;8.40;nan
51829;BME280;37881;48.024;8.774;2022-10-01T08:27:35;93552.59;;;8.27;nan
51829;BME280;37881;48.024;8.774;2022-10-01T08:30:03;93560.00;;;8.27;nan
51829;BME280;37881;48.024;8.774;2022-10-01T08:32:30;93558.50;;;8.22;nan
51829;BME280;37881;48.024;8.774;2022-10-01T08:34:57;93554.25;;;8.17;nan
51829;BME280;37881;48.024;8.774;2022-10-01T08:37:28;93554.53;;;8.27;nan
51829;BME280;37881;48.024;8.774;2022-10-01T08:39:55;93567.44;;;8.26;nan
51829;BME280;37881;48.024;8.774;2022-10-01T08:45:05;93573.72;;;8.23;nan
51829;BME280;37881;48.024;8.774;2022-10-01T08:47:42;93561.19;;;8.26;nan
51829;BME280;37881;48.024;8.774;2022-10-01T08:50:18;93563.00;;;8.36;nan
51829;BME280;37881;48.024;8.774;2022-10-01T08:52:55;93570.81;;;8.37;nan
51829;BME280;37881;48.024;8.774;2022-10-01T08:55:26;93563.00;;;8.36;nan
51829;BME280;37881;48.024;8.774;2022-10-01T08:57:58;93565.47;;;8.27;nan
51829;BME280;37881;48.024;8.774;2022-10-01T09:00:26;93563.78;;;8.36;nan
51829;BME280;37881;48.024;8.774;2022-10-01T09:02:57;93562.59;;;8.37;nan
51829;BME280;37881;48.024;8.774;2022-10-01T09:06:02;93562.97;;;8.43;nan
51829;BME280;37881;48.024;8.774;2022-10-01T09:17:39;93571.63;;;8.65;nan
51829;BME280;37881;48.024;8.774;2022-10-01T09:20:19;93563.81;;;8.67;nan
51829;BME280;37881;48.024;8.774;2022-10-01T09:22:53;93557.56;;;8.67;nan
51829;BME280;37881;48.024;8.774;2022-10-01T09:25:25;93554.84;;;8.63;nan
51829;BME280;37881;48.024;8.774;2022-10-01T09:27:59;93573.13;;;8.73;nan
51829;BME280;37881;48.024;8.774;2022-10-01T09:30:28;93556.69;;;8.73;nan
51829;BME280;37881;48.024;8.774;2022-10-01T09:32:58;93565.69;;;8.74;nan
51829;BME280;37881;48.024;8.774;2022-10-01T09:35:42;93564.91;;;8.73;nan
51829;BME280;37881;48.024;8.774;2022-10-01T09:41:01;93560.75;;;8.62;nan
51829;BME280;37881;48.024;8.774;2022-10-01T09:43:31;93563.88;;;8.64;nan
51829;BME280;37881;48.024;8.774;2022-10-01T09:45:58;93567.38;;;8.64;nan
51829;BME280;37881;48.024;8.774;2022-10-01T09:51:35;93579.50;;;9.17;nan
51829;BME280;37881;48.024;8.774;2022-10-01T09:54:28;93582.84;;;9.29;nan
51829;BME280;37881;48.024;8.774;2022-10-01T09:57:05;93584.88;;;9.25;nan
51829;BME280;37881;48.024;8.774;2022-10-01T09:59:39;93594.78;;;9.42;nan
51829;BME280;37881;48.024;8.774;2022-10-01T10:02:24;93582.06;;;9.75;nan
51829;BME280;37881;48.024;8.774;2022-10-01T10:05:20;93580.75;;;9.84;nan
51829;BME280;37881;48.024;8.774;2022-10-01T10:07:57;93574.09;;;9.85;nan
51829;BME280;37881;48.024;8.774;2022-10-01T10:10:28;93581.81;;;9.90;nan
51829;BME280;37881;48.024;8.774;2022-10-01T10:15:31;93596.19;;;9.50;nan
51829;BME280;37881;48.024;8.774;2022-10-01T10:18:12;93582.88;;;9.52;nan
51829;BME280;37881;48.024;8.774;2022-10-01T10:20:51;93588.94;;;9.40;nan
51829;BME280;37881;48.024;8.774;2022-10-01T10:23:21;93589.41;;;9.58;nan
51829;BME280;37881;48.024;8.774;2022-10-01T10:25:57;93597.88;;;9.44;nan
51829;BME280;37881;48.024;8.774;2022-10-01T10:28:38;93604.94;;;9.65;nan
51829;BME280;37881;48.024;8.774;2022-10-01T10:31:13;93606.22;;;9.60;nan
51829;BME280;37881;48.024;8.774;2022-10-01T10:33:45;93602.03;;;9.76;nan
51829;BME280;37881;48.024;8.774;2022-10-01T10:36:14;93616.56;;;9.73;nan
51829;BME280;37881;48.024;8.774;2022-10-01T10:38:46;93619.50;;;9.62;nan
51829;BME280;37881;48.024;8.774;2022-10-01T10:41:19;93616.88;;;9.78;nan
51829;BME280;37881;48.024;8.774;2022-10-01T10:43:57;93609.47;;;9.75;nan
51829;BME280;37881;48.024;8.774;2022-10-01T10:46:31;93617.94;;;9.61;nan
51829;BME280;37881;48.024;8.774;2022-10-01T10:49:03;93615.91;;;9.65;nan
51829;BME280;37881;48.024;8.774;2022-10-01T10:51:45;93614.72;;;9.66;nan
51829;BME280;37881;48.024;8.774;2022-10-01T10:54:20;93614.34;;;9.40;nan
51829;BME280;37881;48.024;8.774;2022-10-01T10:56:55;93632.44;;;9.34;nan
51829;BME280;37881;48.024;8.774;2022-10-01T10:59:25;93629.88;;;9.24;nan
51829;BME280;37881;48.024;8.774;2022-10-01T11:01:52;93633.13;;;9.15;nan
51829;BME280;37881;48.024;8.774;2022-10-01T11:04:27;93646.19;;;9.31;nan
51829;BME280;37881;48.024;8.774;2022-10-01T11:06:58;93648.19;;;9.27;nan
51829;BME280;37881;48.024;8.774;2022-10-01T11:09:36;93630.47;;;9.35;nan
51829;BME280;37881;48.024;8.774;2022-10-01T11:15:05;93637.50;;;9.36;nan
51829;BME280;37881;48.024;8.774;2022-10-01T11:18:11;93640.97;;;9.40;nan
51829;BME280;37881;48.024;8.774;2022-10-01T11:21:08;93648.09;;;9.34;nan
51829;BME280;37881;48.024;8.774;2022-10-01T11:26:25;93648.03;;;9.37;nan
51829;BME280;37881;48.024;8.774;2022-10-01T11:34:48;93637.91;;;9.34;nan
51829;BME280;37881;48.024;8.774;2022-10-01T11:39:53;93643.34;;;9.38;nan
51829;BME280;37881;48.024;8.774;2022-10-01T11:42:25;93642.63;;;9.34;nan
51829;BME280;37881;48.024;8.774;2022-10-01T11:45:04;93648.31;;;9.19;nan
51829;BME280;37881;48.024;8.774;2022-10-01T11:47:40;93650.38;;;9.39;nan
51829;BME280;37881;48.024;8.774;2022-10-01T11:50:19;93650.97;;;9.23;nan
51829;BME280;37881;48.024;8.774;2022-10-01T11:53:09;93652.06;;;9.56;nan
51829;BME280;37881;48.024;8.774;2022-10-01T11:55:44;93648.75;;;9.69;nan
51829;BME280;37881;48.024;8.774;2022-10-01T11:58:40;93652.88;;;9.53;nan
51829;BME280;37881;48.024;8.774;2022-10-01T12:01:28;93647.41;;;9.53;nan
51829;BME280;37881;48.024;8.774;2022-10-01T12:04:02;93637.53;;;9.59;nan
51829;BME280;37881;48.024;8.774;2022-10-01T12:06:39;93659.78;;;9.62;nan
51829;BME280;37881;48.024;8.774;2022-10-01T12:12:03;93658.38;;;9.77;nan
51829;BME280;37881;48.024;8.774;2022-10-01T12:14:42;93639.56;;;10.03;nan
51829;BME280;37881;48.024;8.774;2022-10-01T12:17:28;93632.47;;;10.05;nan
51829;BME280;37881;48.024;8.774;2022-10-01T12:19:58;93636.06;;;10.02;nan
51829;BME280;37881;48.024;8.774;2022-10-01T12:22:33;93642.06;;;9.93;nan
51829;BME280;37881;48.024;8.774;2022-10-01T12:25:03;93625.78;;;10.06;nan
51829;BME280;37881;48.024;8.774;2022-10-01T12:27:52;93629.75;;;10.25;nan
51829;BME280;37881;48.024;8.774;2022-10-01T12:30:28;93626.19;;;10.28;nan
51829;BME280;37881;48.024;8.774;2022-10-01T12:40:58;93636.19;;;10.38;nan
51829;BME280;37881;48.024;8.774;2022-10-01T12:46:36;93637.81;;;10.56;nan
51829;BME280;37881;48.024;8.774;2022-10-01T12:49:32;93637.53;;;10.50;nan
51829;BME280;37881;48.024;8.774;2022-10-01T12:55:10;93646.53;;;10.51;nan
51829;BME280;37881;48.024;8.774;2022-10-01T13:00:19;93640.47;;;10.39;nan
51829;BME280;37881;48.024;8.774;2022-10-01T13:05:53;93653.28;;;10.46;nan
51829;BME280;37881;48.024;8.774;2022-10-01T13:13:39;93656.41;;;10.25;nan
51829;BME280;37881;48.024;8.774;2022-10-01T13:19:36;93655.53;;;10.31;nan
51829;BME280;37881;48.024;8.774;2022-10-01T13:25:06;93652.16;;;10.20;nan
51829;BME280;37881;48.024;8.774;2022-10-01T13:27:45;93666.31;;;10.18;nan
51829;BME280;37881;48.024;8.774;2022-10-01T13:30:24;93664.34;;;10.19;nan
51829;BME280;37881;48.024;8.774;2022-10-01T13:32:57;93660.63;;;10.29;nan
51829;BME280;37881;48.024;8.774;2022-10-01T13:35:32;93658.84;;;10.19;nan
51829;BME280;37881;48.024;8.774;2022-10-01T13:38:15;93663.97;;;10.17;nan
51829;BME280;37881;48.024;8.774;2022-10-01T13:40:43;93665.72;;;10.31;nan
51829;BME280;37881;48.024;8.774;2022-10-01T13:43:16;93661.47;;;10.26;nan
51829;BME280;37881;48.024;8.774;2022-10-01T13:45:46;93661.72;;;10.35;nan
51829;BME280;37881;48.024;8.774;2022-10-01T13:48:20;93669.25;;;10.28;nan
51829;BME280;37881;48.024;8.774;2022-10-01T13:53:31;93675.66;;;10.21;nan
51829;BME280;37881;48.024;8.774;2022-10-01T13:55:59;93675.19;;;10.26;nan
51829;BME280;37881;48.024;8.774;2022-10-01T14:01:02;93676.72;;;10.27;nan
51829;BME280;37881;48.024;8.774;2022-10-01T14:06:02;93684.50;;;10.32;nan
51829;BME280;37881;48.024;8.774;2022-10-01T14:08:50;93685.13;;;10.40;nan
51829;BME280;37881;48.024;8.774;2022-10-01T14:11:24;93690.09;;;10.49;nan
51829;BME280;37881;48.024;8.774;2022-10-01T14:14:57;93688.72;;;10.37;nan
51829;BME280;37881;48.024;8.774;2022-10-01T14:17:20;93694.75;;;10.28;nan
51829;BME280;37881;48.024;8.774;2022-10-01T14:19:48;93697.13;;;10.26;nan
51829;BME280;37881;48.024;8.774;2022-10-01T14:22:22;93697.38;;;10.35;nan
51829;BME280;37881;48.024;8.774;2022-10-01T14:41:36;93714.69;;;10.32;nan
51829;BME280;37881;48.024;8.774;2022-10-01T14:44:17;93711.63;;;10.27;nan
51829;BME280;37881;48.024;8.774;2022-10-01T14:46:45;93719.00;;;10.30;nan
51829;BME280;37881;48.024;8.774;2022-10-01T14:49:24;93710.69;;;10.37;nan
51829;BME280;37881;48.024;8.774;2022-10-01T14:52:17;93711.84;;;10.36;nan
51829;BME280;37881;48.024;8.774;2022-10-01T14:54:52;93717.44;;;10.29;nan
51829;BME280;37881;48.024;8.774;2022-10-01T14:57:29;93718.69;;;10.48;nan
51829;BME280;37881;48.024;8.774;2022-10-01T14:59:58;93721.22;;;10.38;nan
51829;BME280;37881;48.024;8.774;2022-10-01T15:02:27;93723.97;;;10.38;nan
51829;BME280;37881;48.024;8.774;2022-10-01T15:04:56;93730.81;;;10.50;nan
51829;BME280;37881;48.024;8.774;2022-10-01T15:07:26;93744.47;;;10.54;nan
51829;BME280;37881;48.024;8.774;2022-10-01T15:10:04;93737.09;;;10.51;nan
51829;BME280;37881;48.024;8.774;2022-10-01T15:12:37;93746.38;;;10.57;nan
51829;BME280;37881;48.024;8.774;2022-10-01T15:15:32;93761.66;;;10.78;nan
51829;BME280;37881;48.024;8.774;2022-10-01T15:18:02;93750.03;;;10.70;nan
51829;BME280;37881;48.024;8.774;2022-10-01T15:20:29;93760.31;;;10.66;nan
51829;BME280;37881;48.024;8.774;2022-10-01T15:22:56;93751.59;;;10.71;nan
51829;BME280;37881;48.024;8.774;2022-10-01T15:25:28;93735.91;;;10.72;nan
51829;BME280;37881;48.024;8.774;2022-10-01T15:27:55;93729.28;;;10.69;nan
51829;BME280;37881;48.024;8.774;2022-10-01T15:30:24;93728.44;;;10.72;nan
51829;BME280;37881;48.024;8.774;2022-10-01T15:32:52;93734.44;;;10.67;nan
51829;BME280;37881;48.024;8.774;2022-10-01T15:35:21;93725.06;;;10.65;nan
51829;BME280;37881;48.024;8.774;2022-10-01T15:37:49;93723.94;;;10.62;nan
51829;BME280;37881;48.024;8.774;2022-10-01T15:40:28;93719.84;;;10.70;nan